sensor_id;sensor_type;location;lat;lon;timestamp;temperature;humidity
75621;DHT22;64574;48.506;-2.750;2023-12-20T00:00:52;8.70;69.20
75621;DHT22;64574;48.506;-2.750;2023-12-20T00:03:17;8.60;69.50
75621;DHT22;64574;48.506;-2.750;2023-12-20T00:05:43;8.60;69.70
75621;DHT22;64574;48.506;-2.750;2023-12-20T00:08:09;8.40;70.30
75621;DHT22;64574;48.506;-2.750;2023-12-20T00:10:34;8.40;70.60
75621;DHT22;64574;48.506;-2.750;2023-12-20T00:13:00;8.40;70.70
75621;DHT22;64574;48.506;-2.750;2023-12-20T00:15:26;8.30;70.70
75621;DHT22;64574;48.506;-2.750;2023-12-20T00:17:51;8.20;71.10
75621;DHT22;64574;48.506;-2.750;2023-12-20T00:20:17;8.20;71.20
75621;DHT22;64574;48.506;-2.750;2023-12-20T00:22:42;8.20;71.10
75621;DHT22;64574;48.506;-2.750;2023-12-20T00:25:08;8.10;71.00
75621;DHT22;64574;48.506;-2.750;2023-12-20T00:27:34;8.10;71.20
75621;DHT22;64574;48.506;-2.750;2023-12-20T00:29:59;8.00;71.30
75621;DHT22;64574;48.506;-2.750;2023-12-20T00:32:25;8.00;71.20
75621;DHT22;64574;48.506;-2.750;2023-12-20T00:34:50;8.00;71.40
75621;DHT22;64574;48.506;-2.750;2023-12-20T00:37:16;8.00;71.40
75621;DHT22;64574;48.506;-2.750;2023-12-20T00:39:41;8.10;71.20
75621;DHT22;64574;48.506;-2.750;2023-12-20T00:42:07;8.10;70.90
75621;DHT22;64574;48.506;-2.750;2023-12-20T00:44:33;8.10;71.00
75621;DHT22;64574;48.506;-2.750;2023-12-20T00:46:58;8.20;70.70
75621;DHT22;64574;48.506;-2.750;2023-12-20T00:49:24;8.10;70.50
75621;DHT22;64574;48.506;-2.750;2023-12-20T00:51:49;8.20;70.30
75621;DHT22;64574;48.506;-2.750;2023-12-20T00:54:17;8.10;70.60
75621;DHT22;64574;48.506;-2.750;2023-12-20T00:56:43;8.10;70.90
75621;DHT22;64574;48.506;-2.750;2023-12-20T00:59:09;8.10;71.00
75621;DHT22;64574;48.506;-2.750;2023-12-20T01:01:34;8.10;70.90
75621;DHT22;64574;48.506;-2.750;2023-12-20T01:04:00;8.00;71.10
75621;DHT22;64574;48.506;-2.750;2023-12-20T01:06:26;8.00;71.30
75621;DHT22;64574;48.506;-2.750;2023-12-20T01:08:51;8.00;71.40
75621;DHT22;64574;48.506;-2.750;2023-12-20T01:11:17;8.00;71.60
75621;DHT22;64574;48.506;-2.750;2023-12-20T01:13:42;8.00;71.60
75621;DHT22;64574;48.506;-2.750;2023-12-20T01:16:10;8.00;71.90
75621;DHT22;64574;48.506;-2.750;2023-12-20T01:18:37;8.00;72.10
75621;DHT22;64574;48.506;-2.750;2023-12-20T01:21:03;8.10;71.80
75621;DHT22;64574;48.506;-2.750;2023-12-20T01:23:29;8.00;72.00
75621;DHT22;64574;48.506;-2.750;2023-12-20T01:25:55;8.00;72.10
75621;DHT22;64574;48.506;-2.750;2023-12-20T01:28:20;8.10;72.40
75621;DHT22;64574;48.506;-2.750;2023-12-20T01:30:46;8.20;72.10
75621;DHT22;64574;48.506;-2.750;2023-12-20T01:33:12;8.30;72.20
75621;DHT22;64574;48.506;-2.750;2023-12-20T01:35:37;8.50;71.80
75621;DHT22;64574;48.506;-2.750;2023-12-20T01:38:03;8.40;71.60
75621;DHT22;64574;48.506;-2.750;2023-12-20T01:40:29;8.40;71.80
75621;DHT22;64574;48.506;-2.750;2023-12-20T01:43:07;8.30;72.50
75621;DHT22;64574;48.506;-2.750;2023-12-20T01:45:37;8.30;73.20
75621;DHT22;64574;48.506;-2.750;2023-12-20T01:48:05;8.20;73.70
75621;DHT22;64574;48.506;-2.750;2023-12-20T01:50:32;8.20;74.40
75621;DHT22;64574;48.506;-2.750;2023-12-20T01:52:58;8.30;74.50
75621;DHT22;64574;48.506;-2.750;2023-12-20T01:55:25;8.30;74.70
75621;DHT22;64574;48.506;-2.750;2023-12-20T01:57:52;8.10;75.50
75621;DHT22;64574;48.506;-2.750;2023-12-20T02:00:18;8.10;75.70
75621;DHT22;64574;48.506;-2.750;2023-12-20T02:02:48;8.10;76.20
75621;DHT22;64574;48.506;-2.750;2023-12-20T02:05:16;8.00;76.50
75621;DHT22;64574;48.506;-2.750;2023-12-20T02:07:42;7.90;77.20
75621;DHT22;64574;48.506;-2.750;2023-12-20T02:10:08;8.00;77.50
75621;DHT22;64574;48.506;-2.750;2023-12-20T02:12:33;7.90;77.70
75621;DHT22;64574;48.506;-2.750;2023-12-20T02:14:59;7.90;77.90
75621;DHT22;64574;48.506;-2.750;2023-12-20T02:17:26;7.80;78.10
75621;DHT22;64574;48.506;-2.750;2023-12-20T02:19:52;7.80;78.30
75621;DHT22;64574;48.506;-2.750;2023-12-20T02:22:17;7.80;78.50
75621;DHT22;64574;48.506;-2.750;2023-12-20T02:24:43;7.80;78.80
75621;DHT22;64574;48.506;-2.750;2023-12-20T02:27:08;7.80;78.90
75621;DHT22;64574;48.506;-2.750;2023-12-20T02:29:35;7.70;79.20
75621;DHT22;64574;48.506;-2.750;2023-12-20T02:32:01;7.70;79.20
75621;DHT22;64574;48.506;-2.750;2023-12-20T02:34:27;7.80;79.00
75621;DHT22;64574;48.506;-2.750;2023-12-20T02:36:53;7.80;78.80
75621;DHT22;64574;48.506;-2.750;2023-12-20T02:39:19;7.80;78.90
75621;DHT22;64574;48.506;-2.750;2023-12-20T02:41:45;7.80;79.00
75621;DHT22;64574;48.506;-2.750;2023-12-20T02:44:11;7.80;79.00
75621;DHT22;64574;48.506;-2.750;2023-12-20T02:46:36;7.80;78.60
75621;DHT22;64574;48.506;-2.750;2023-12-20T02:49:02;7.80;78.90
75621;DHT22;64574;48.506;-2.750;2023-12-20T02:51:27;7.80;79.10
75621;DHT22;64574;48.506;-2.750;2023-12-20T02:53:53;7.90;78.90
75621;DHT22;64574;48.506;-2.750;2023-12-20T02:56:19;7.90;79.50
75621;DHT22;64574;48.506;-2.750;2023-12-20T02:58:44;8.00;79.00
75621;DHT22;64574;48.506;-2.750;2023-12-20T03:01:10;8.00;79.00
75621;DHT22;64574;48.506;-2.750;2023-12-20T03:03:35;8.00;79.10
75621;DHT22;64574;48.506;-2.750;2023-12-20T03:06:01;8.00;79.00
75621;DHT22;64574;48.506;-2.750;2023-12-20T03:08:27;8.00;79.40
75621;DHT22;64574;48.506;-2.750;2023-12-20T03:10:52;8.00;79.40
75621;DHT22;64574;48.506;-2.750;2023-12-20T03:13:19;8.00;79.20
75621;DHT22;64574;48.506;-2.750;2023-12-20T03:15:45;8.00;78.90
75621;DHT22;64574;48.506;-2.750;2023-12-20T03:18:11;8.00;78.70
75621;DHT22;64574;48.506;-2.750;2023-12-20T03:20:36;8.00;78.90
75621;DHT22;64574;48.506;-2.750;2023-12-20T03:23:02;7.90;79.10
75621;DHT22;64574;48.506;-2.750;2023-12-20T03:25:28;7.80;79.40
75621;DHT22;64574;48.506;-2.750;2023-12-20T03:27:53;7.90;79.60
75621;DHT22;64574;48.506;-2.750;2023-12-20T03:30:19;7.80;80.30
75621;DHT22;64574;48.506;-2.750;2023-12-20T03:32:45;7.70;80.90
75621;DHT22;64574;48.506;-2.750;2023-12-20T03:35:11;7.50;81.60
75621;DHT22;64574;48.506;-2.750;2023-12-20T03:37:37;7.80;81.20
75621;DHT22;64574;48.506;-2.750;2023-12-20T03:40:03;7.80;80.80
75621;DHT22;64574;48.506;-2.750;2023-12-20T03:42:28;7.80;80.70
75621;DHT22;64574;48.506;-2.750;2023-12-20T03:44:54;7.80;80.90
75621;DHT22;64574;48.506;-2.750;2023-12-20T03:47:20;7.70;81.20
75621;DHT22;64574;48.506;-2.750;2023-12-20T03:49:45;7.60;81.40
75621;DHT22;64574;48.506;-2.750;2023-12-20T03:52:11;7.60;81.60
75621;DHT22;64574;48.506;-2.750;2023-12-20T03:54:37;7.60;81.60
75621;DHT22;64574;48.506;-2.750;2023-12-20T03:57:03;7.60;81.50
75621;DHT22;64574;48.506;-2.750;2023-12-20T03:59:29;7.60;81.60
75621;DHT22;64574;48.506;-2.750;2023-12-20T04:01:55;7.60;81.50
75621;DHT22;64574;48.506;-2.750;2023-12-20T04:04:21;7.50;81.70
75621;DHT22;64574;48.506;-2.750;2023-12-20T04:06:47;7.50;81.70
75621;DHT22;64574;48.506;-2.750;2023-12-20T04:09:12;7.50;81.60
75621;DHT22;64574;48.506;-2.750;2023-12-20T04:11:38;7.50;81.50
75621;DHT22;64574;48.506;-2.750;2023-12-20T04:14:04;7.50;81.10
75621;DHT22;64574;48.506;-2.750;2023-12-20T04:16:34;7.50;81.30
75621;DHT22;64574;48.506;-2.750;2023-12-20T04:19:00;7.50;81.40
75621;DHT22;64574;48.506;-2.750;2023-12-20T04:21:26;7.40;81.50
75621;DHT22;64574;48.506;-2.750;2023-12-20T04:23:52;7.50;81.50
75621;DHT22;64574;48.506;-2.750;2023-12-20T04:26:17;7.50;81.20
75621;DHT22;64574;48.506;-2.750;2023-12-20T04:28:43;7.50;81.10
75621;DHT22;64574;48.506;-2.750;2023-12-20T04:31:08;7.40;81.10
75621;DHT22;64574;48.506;-2.750;2023-12-20T04:33:34;7.50;80.90
75621;DHT22;64574;48.506;-2.750;2023-12-20T04:35:59;7.40;80.90
75621;DHT22;64574;48.506;-2.750;2023-12-20T04:38:26;7.40;81.00
75621;DHT22;64574;48.506;-2.750;2023-12-20T04:40:51;7.30;81.20
75621;DHT22;64574;48.506;-2.750;2023-12-20T04:43:17;7.40;81.20
75621;DHT22;64574;48.506;-2.750;2023-12-20T04:45:43;7.40;80.90
75621;DHT22;64574;48.506;-2.750;2023-12-20T04:48:08;7.40;80.80
75621;DHT22;64574;48.506;-2.750;2023-12-20T04:50:34;7.40;80.50
75621;DHT22;64574;48.506;-2.750;2023-12-20T04:53:00;7.30;80.50
75621;DHT22;64574;48.506;-2.750;2023-12-20T04:55:26;7.30;80.50
75621;DHT22;64574;48.506;-2.750;2023-12-20T04:57:51;7.30;80.40
75621;DHT22;64574;48.506;-2.750;2023-12-20T05:00:17;7.30;80.30
75621;DHT22;64574;48.506;-2.750;2023-12-20T05:02:43;7.40;80.10
75621;DHT22;64574;48.506;-2.750;2023-12-20T05:05:08;7.40;79.90
75621;DHT22;64574;48.506;-2.750;2023-12-20T05:07:34;7.40;79.70
75621;DHT22;64574;48.506;-2.750;2023-12-20T05:10:00;7.40;79.60
75621;DHT22;64574;48.506;-2.750;2023-12-20T05:12:26;7.50;79.30
75621;DHT22;64574;48.506;-2.750;2023-12-20T05:14:52;7.50;79.00
75621;DHT22;64574;48.506;-2.750;2023-12-20T05:17:18;7.60;78.70
75621;DHT22;64574;48.506;-2.750;2023-12-20T05:19:45;7.60;78.50
75621;DHT22;64574;48.506;-2.750;2023-12-20T05:22:11;7.60;78.10
75621;DHT22;64574;48.506;-2.750;2023-12-20T05:24:37;7.50;78.40
75621;DHT22;64574;48.506;-2.750;2023-12-20T05:27:02;7.60;78.50
75621;DHT22;64574;48.506;-2.750;2023-12-20T05:29:28;7.60;78.30
75621;DHT22;64574;48.506;-2.750;2023-12-20T05:31:53;7.60;78.30
75621;DHT22;64574;48.506;-2.750;2023-12-20T05:34:19;7.50;79.20
75621;DHT22;64574;48.506;-2.750;2023-12-20T05:36:45;7.50;79.90
75621;DHT22;64574;48.506;-2.750;2023-12-20T05:39:11;7.50;79.70
75621;DHT22;64574;48.506;-2.750;2023-12-20T05:41:37;7.60;79.70
75621;DHT22;64574;48.506;-2.750;2023-12-20T05:44:03;7.70;79.60
75621;DHT22;64574;48.506;-2.750;2023-12-20T05:46:29;7.70;79.50
75621;DHT22;64574;48.506;-2.750;2023-12-20T05:48:54;7.70;79.50
75621;DHT22;64574;48.506;-2.750;2023-12-20T05:51:20;7.70;79.20
75621;DHT22;64574;48.506;-2.750;2023-12-20T05:53:46;7.70;79.30
75621;DHT22;64574;48.506;-2.750;2023-12-20T05:56:11;7.60;79.50
75621;DHT22;64574;48.506;-2.750;2023-12-20T05:58:38;7.70;79.60
75621;DHT22;64574;48.506;-2.750;2023-12-20T06:01:05;7.60;79.60
75621;DHT22;64574;48.506;-2.750;2023-12-20T06:03:31;7.60;79.70
75621;DHT22;64574;48.506;-2.750;2023-12-20T06:05:56;7.70;79.40
75621;DHT22;64574;48.506;-2.750;2023-12-20T06:08:22;7.60;79.40
75621;DHT22;64574;48.506;-2.750;2023-12-20T06:10:48;7.70;79.40
75621;DHT22;64574;48.506;-2.750;2023-12-20T06:13:14;7.80;79.50
75621;DHT22;64574;48.506;-2.750;2023-12-20T06:15:40;7.70;79.30
75621;DHT22;64574;48.506;-2.750;2023-12-20T06:18:06;7.60;79.50
75621;DHT22;64574;48.506;-2.750;2023-12-20T06:20:32;7.60;79.70
75621;DHT22;64574;48.506;-2.750;2023-12-20T06:22:58;7.60;79.70
75621;DHT22;64574;48.506;-2.750;2023-12-20T06:25:24;7.60;79.50
75621;DHT22;64574;48.506;-2.750;2023-12-20T06:27:49;7.50;79.80
75621;DHT22;64574;48.506;-2.750;2023-12-20T06:30:16;7.60;79.70
75621;DHT22;64574;48.506;-2.750;2023-12-20T06:32:42;7.60;79.60
75621;DHT22;64574;48.506;-2.750;2023-12-20T06:35:09;7.50;79.80
75621;DHT22;64574;48.506;-2.750;2023-12-20T06:37:35;7.50;80.00
75621;DHT22;64574;48.506;-2.750;2023-12-20T06:40:01;7.50;80.00
75621;DHT22;64574;48.506;-2.750;2023-12-20T06:42:26;7.40;80.10
75621;DHT22;64574;48.506;-2.750;2023-12-20T06:44:52;7.40;80.10
75621;DHT22;64574;48.506;-2.750;2023-12-20T06:47:18;7.50;80.00
75621;DHT22;64574;48.506;-2.750;2023-12-20T06:49:43;7.50;79.70
75621;DHT22;64574;48.506;-2.750;2023-12-20T06:52:09;7.50;79.60
75621;DHT22;64574;48.506;-2.750;2023-12-20T06:54:35;7.50;79.50
75621;DHT22;64574;48.506;-2.750;2023-12-20T06:57:01;7.50;79.10
75621;DHT22;64574;48.506;-2.750;2023-12-20T06:59:28;7.60;79.00
75621;DHT22;64574;48.506;-2.750;2023-12-20T07:01:54;7.70;78.60
75621;DHT22;64574;48.506;-2.750;2023-12-20T07:04:19;7.80;78.70
75621;DHT22;64574;48.506;-2.750;2023-12-20T07:06:49;7.70;78.60
75621;DHT22;64574;48.506;-2.750;2023-12-20T07:09:22;7.70;78.80
75621;DHT22;64574;48.506;-2.750;2023-12-20T07:11:47;7.80;79.00
75621;DHT22;64574;48.506;-2.750;2023-12-20T07:14:13;7.80;79.00
75621;DHT22;64574;48.506;-2.750;2023-12-20T07:16:39;7.80;78.80
75621;DHT22;64574;48.506;-2.750;2023-12-20T07:19:05;7.80;78.90
75621;DHT22;64574;48.506;-2.750;2023-12-20T07:21:31;7.70;79.00
75621;DHT22;64574;48.506;-2.750;2023-12-20T07:23:57;7.70;79.40
75621;DHT22;64574;48.506;-2.750;2023-12-20T07:26:22;7.70;79.50
75621;DHT22;64574;48.506;-2.750;2023-12-20T07:28:48;7.70;79.50
75621;DHT22;64574;48.506;-2.750;2023-12-20T07:31:15;7.70;79.70
75621;DHT22;64574;48.506;-2.750;2023-12-20T07:33:40;7.70;79.70
75621;DHT22;64574;48.506;-2.750;2023-12-20T07:36:06;7.60;79.80
75621;DHT22;64574;48.506;-2.750;2023-12-20T07:38:31;7.70;79.80
75621;DHT22;64574;48.506;-2.750;2023-12-20T07:40:57;7.60;79.90
75621;DHT22;64574;48.506;-2.750;2023-12-20T07:43:22;7.60;80.00
75621;DHT22;64574;48.506;-2.750;2023-12-20T07:45:48;7.70;79.80
75621;DHT22;64574;48.506;-2.750;2023-12-20T07:48:14;7.60;79.80
75621;DHT22;64574;48.506;-2.750;2023-12-20T07:50:39;7.70;80.00
75621;DHT22;64574;48.506;-2.750;2023-12-20T07:53:05;7.80;79.70
75621;DHT22;64574;48.506;-2.750;2023-12-20T07:55:30;7.80;79.50
75621;DHT22;64574;48.506;-2.750;2023-12-20T07:57:57;7.80;79.40
75621;DHT22;64574;48.506;-2.750;2023-12-20T08:00:23;7.90;79.40
75621;DHT22;64574;48.506;-2.750;2023-12-20T08:02:48;8.00;79.40
75621;DHT22;64574;48.506;-2.750;2023-12-20T08:05:14;8.00;78.90
75621;DHT22;64574;48.506;-2.750;2023-12-20T08:07:39;7.90;79.00
75621;DHT22;64574;48.506;-2.750;2023-12-20T08:10:05;7.80;79.10
75621;DHT22;64574;48.506;-2.750;2023-12-20T08:12:31;7.70;79.40
75621;DHT22;64574;48.506;-2.750;2023-12-20T08:14:56;7.70;79.70
75621;DHT22;64574;48.506;-2.750;2023-12-20T08:17:22;7.80;79.80
75621;DHT22;64574;48.506;-2.750;2023-12-20T08:19:48;7.70;79.80
75621;DHT22;64574;48.506;-2.750;2023-12-20T08:22:14;7.70;80.00
75621;DHT22;64574;48.506;-2.750;2023-12-20T08:24:39;7.60;80.50
75621;DHT22;64574;48.506;-2.750;2023-12-20T08:27:05;7.70;80.50
75621;DHT22;64574;48.506;-2.750;2023-12-20T08:29:31;7.70;80.60
75621;DHT22;64574;48.506;-2.750;2023-12-20T08:31:56;7.60;80.80
75621;DHT22;64574;48.506;-2.750;2023-12-20T08:34:22;7.80;80.80
75621;DHT22;64574;48.506;-2.750;2023-12-20T08:36:50;7.80;80.60
75621;DHT22;64574;48.506;-2.750;2023-12-20T08:39:16;7.80;80.60
75621;DHT22;64574;48.506;-2.750;2023-12-20T08:41:42;7.90;80.70
75621;DHT22;64574;48.506;-2.750;2023-12-20T08:44:07;8.00;80.50
75621;DHT22;64574;48.506;-2.750;2023-12-20T08:46:33;8.00;80.10
75621;DHT22;64574;48.506;-2.750;2023-12-20T08:48:58;7.90;80.30
75621;DHT22;64574;48.506;-2.750;2023-12-20T08:51:23;7.80;80.80
75621;DHT22;64574;48.506;-2.750;2023-12-20T08:53:51;7.90;80.90
75621;DHT22;64574;48.506;-2.750;2023-12-20T08:56:16;7.90;80.80
75621;DHT22;64574;48.506;-2.750;2023-12-20T08:58:43;7.90;81.10
75621;DHT22;64574;48.506;-2.750;2023-12-20T09:01:08;7.90;81.20
75621;DHT22;64574;48.506;-2.750;2023-12-20T09:03:34;8.00;81.20
75621;DHT22;64574;48.506;-2.750;2023-12-20T09:06:00;8.00;81.10
75621;DHT22;64574;48.506;-2.750;2023-12-20T09:08:25;8.10;80.90
75621;DHT22;64574;48.506;-2.750;2023-12-20T09:10:51;8.20;80.90
75621;DHT22;64574;48.506;-2.750;2023-12-20T09:13:16;8.30;80.80
75621;DHT22;64574;48.506;-2.750;2023-12-20T09:15:42;8.30;80.90
75621;DHT22;64574;48.506;-2.750;2023-12-20T09:18:07;8.30;80.90
75621;DHT22;64574;48.506;-2.750;2023-12-20T09:20:33;8.20;81.10
75621;DHT22;64574;48.506;-2.750;2023-12-20T09:22:59;8.10;81.50
75621;DHT22;64574;48.506;-2.750;2023-12-20T09:25:24;8.10;81.60
75621;DHT22;64574;48.506;-2.750;2023-12-20T09:27:51;8.00;81.80
75621;DHT22;64574;48.506;-2.750;2023-12-20T09:30:17;8.10;82.00
75621;DHT22;64574;48.506;-2.750;2023-12-20T09:32:43;8.10;81.80
75621;DHT22;64574;48.506;-2.750;2023-12-20T09:35:08;8.10;82.20
75621;DHT22;64574;48.506;-2.750;2023-12-20T09:37:34;8.20;82.30
75621;DHT22;64574;48.506;-2.750;2023-12-20T09:40:00;8.30;82.30
75621;DHT22;64574;48.506;-2.750;2023-12-20T09:44:57;8.50;81.80
75621;DHT22;64574;48.506;-2.750;2023-12-20T09:47:24;8.60;81.50
75621;DHT22;64574;48.506;-2.750;2023-12-20T09:49:50;8.60;81.40
75621;DHT22;64574;48.506;-2.750;2023-12-20T09:52:16;8.60;81.50
75621;DHT22;64574;48.506;-2.750;2023-12-20T09:54:42;8.70;81.70
75621;DHT22;64574;48.506;-2.750;2023-12-20T09:57:09;8.80;81.60
75621;DHT22;64574;48.506;-2.750;2023-12-20T09:59:34;8.90;81.70
75621;DHT22;64574;48.506;-2.750;2023-12-20T10:02:00;8.90;81.80
75621;DHT22;64574;48.506;-2.750;2023-12-20T10:04:26;8.80;81.80
75621;DHT22;64574;48.506;-2.750;2023-12-20T10:06:52;8.70;82.20
75621;DHT22;64574;48.506;-2.750;2023-12-20T10:09:18;8.70;82.40
75621;DHT22;64574;48.506;-2.750;2023-12-20T10:11:43;8.70;82.70
75621;DHT22;64574;48.506;-2.750;2023-12-20T10:14:10;8.80;82.80
75621;DHT22;64574;48.506;-2.750;2023-12-20T10:16:36;8.90;82.70
75621;DHT22;64574;48.506;-2.750;2023-12-20T10:19:01;8.90;82.50
75621;DHT22;64574;48.506;-2.750;2023-12-20T10:21:27;8.90;82.40
75621;DHT22;64574;48.506;-2.750;2023-12-20T10:23:53;9.00;82.40
75621;DHT22;64574;48.506;-2.750;2023-12-20T10:26:23;9.00;82.50
75621;DHT22;64574;48.506;-2.750;2023-12-20T10:28:55;9.00;82.20
75621;DHT22;64574;48.506;-2.750;2023-12-20T10:31:31;9.00;82.00
75621;DHT22;64574;48.506;-2.750;2023-12-20T10:33:57;9.10;81.90
75621;DHT22;64574;48.506;-2.750;2023-12-20T10:36:27;9.10;81.70
75621;DHT22;64574;48.506;-2.750;2023-12-20T10:38:54;9.10;81.50
75621;DHT22;64574;48.506;-2.750;2023-12-20T10:41:21;9.20;81.40
75621;DHT22;64574;48.506;-2.750;2023-12-20T10:43:48;9.20;81.40
75621;DHT22;64574;48.506;-2.750;2023-12-20T10:46:13;9.20;81.10
75621;DHT22;64574;48.506;-2.750;2023-12-20T10:48:40;9.40;81.00
75621;DHT22;64574;48.506;-2.750;2023-12-20T10:51:06;9.50;80.30
75621;DHT22;64574;48.506;-2.750;2023-12-20T10:53:32;9.50;80.20
75621;DHT22;64574;48.506;-2.750;2023-12-20T10:55:59;9.40;80.50
75621;DHT22;64574;48.506;-2.750;2023-12-20T10:58:25;9.40;81.00
75621;DHT22;64574;48.506;-2.750;2023-12-20T11:00:53;9.40;81.80
75621;DHT22;64574;48.506;-2.750;2023-12-20T11:03:22;9.20;82.60
75621;DHT22;64574;48.506;-2.750;2023-12-20T11:06:07;9.30;82.90
75621;DHT22;64574;48.506;-2.750;2023-12-20T11:08:49;9.30;82.90
75621;DHT22;64574;48.506;-2.750;2023-12-20T11:14:16;9.30;83.20
75621;DHT22;64574;48.506;-2.750;2023-12-20T11:16:37;9.20;83.60
75621;DHT22;64574;48.506;-2.750;2023-12-20T11:19:06;9.30;84.30
75621;DHT22;64574;48.506;-2.750;2023-12-20T11:21:32;9.20;85.10
75621;DHT22;64574;48.506;-2.750;2023-12-20T11:23:57;9.20;85.50
75621;DHT22;64574;48.506;-2.750;2023-12-20T11:26:26;9.20;85.40
75621;DHT22;64574;48.506;-2.750;2023-12-20T11:28:53;9.20;85.80
75621;DHT22;64574;48.506;-2.750;2023-12-20T11:31:19;9.20;85.40
75621;DHT22;64574;48.506;-2.750;2023-12-20T11:33:44;9.20;85.50
75621;DHT22;64574;48.506;-2.750;2023-12-20T11:36:14;9.30;85.60
75621;DHT22;64574;48.506;-2.750;2023-12-20T11:38:58;9.40;85.50
75621;DHT22;64574;48.506;-2.750;2023-12-20T11:41:25;9.40;85.40
75621;DHT22;64574;48.506;-2.750;2023-12-20T11:43:53;9.40;85.10
75621;DHT22;64574;48.506;-2.750;2023-12-20T11:46:19;9.40;85.00
75621;DHT22;64574;48.506;-2.750;2023-12-20T11:48:45;9.50;84.80
75621;DHT22;64574;48.506;-2.750;2023-12-20T11:51:12;9.50;84.90
75621;DHT22;64574;48.506;-2.750;2023-12-20T11:53:38;9.60;84.90
75621;DHT22;64574;48.506;-2.750;2023-12-20T11:56:07;9.60;84.80
75621;DHT22;64574;48.506;-2.750;2023-12-20T11:58:33;9.70;84.80
75621;DHT22;64574;48.506;-2.750;2023-12-20T12:00:59;9.70;84.10
75621;DHT22;64574;48.506;-2.750;2023-12-20T12:03:24;9.80;83.60
75621;DHT22;64574;48.506;-2.750;2023-12-20T12:05:50;9.90;83.20
75621;DHT22;64574;48.506;-2.750;2023-12-20T12:08:16;10.00;83.10
75621;DHT22;64574;48.506;-2.750;2023-12-20T12:10:42;10.10;82.70
75621;DHT22;64574;48.506;-2.750;2023-12-20T12:13:08;10.10;82.50
75621;DHT22;64574;48.506;-2.750;2023-12-20T12:15:33;10.10;82.40
75621;DHT22;64574;48.506;-2.750;2023-12-20T12:17:59;10.10;82.60
75621;DHT22;64574;48.506;-2.750;2023-12-20T12:20:24;10.00;83.10
75621;DHT22;64574;48.506;-2.750;2023-12-20T12:23:04;10.00;84.00
75621;DHT22;64574;48.506;-2.750;2023-12-20T12:25:30;10.00;84.30
75621;DHT22;64574;48.506;-2.750;2023-12-20T12:27:57;9.90;84.60
75621;DHT22;64574;48.506;-2.750;2023-12-20T12:30:23;9.90;85.00
75621;DHT22;64574;48.506;-2.750;2023-12-20T12:32:50;10.00;84.70
75621;DHT22;64574;48.506;-2.750;2023-12-20T12:35:15;10.00;84.60
75621;DHT22;64574;48.506;-2.750;2023-12-20T12:37:41;10.00;84.40
75621;DHT22;64574;48.506;-2.750;2023-12-20T12:40:09;10.10;84.10
75621;DHT22;64574;48.506;-2.750;2023-12-20T12:42:35;10.10;83.20
75621;DHT22;64574;48.506;-2.750;2023-12-20T12:45:01;10.20;82.20
75621;DHT22;64574;48.506;-2.750;2023-12-20T12:47:26;10.30;81.50
75621;DHT22;64574;48.506;-2.750;2023-12-20T12:49:52;10.40;80.90
75621;DHT22;64574;48.506;-2.750;2023-12-20T12:52:20;10.50;80.70
75621;DHT22;64574;48.506;-2.750;2023-12-20T12:54:46;10.50;80.20
75621;DHT22;64574;48.506;-2.750;2023-12-20T12:57:13;10.40;80.10
75621;DHT22;64574;48.506;-2.750;2023-12-20T12:59:38;10.50;80.60
75621;DHT22;64574;48.506;-2.750;2023-12-20T13:02:04;10.40;81.10
75621;DHT22;64574;48.506;-2.750;2023-12-20T13:04:30;10.30;81.20
75621;DHT22;64574;48.506;-2.750;2023-12-20T13:06:56;10.20;81.60
75621;DHT22;64574;48.506;-2.750;2023-12-20T13:09:22;10.30;82.00
75621;DHT22;64574;48.506;-2.750;2023-12-20T13:11:48;10.30;82.00
75621;DHT22;64574;48.506;-2.750;2023-12-20T13:14:13;10.20;82.20
75621;DHT22;64574;48.506;-2.750;2023-12-20T13:16:41;10.30;82.20
75621;DHT22;64574;48.506;-2.750;2023-12-20T13:19:06;10.40;82.20
75621;DHT22;64574;48.506;-2.750;2023-12-20T13:21:32;10.30;82.00
75621;DHT22;64574;48.506;-2.750;2023-12-20T13:23:57;10.20;82.20
75621;DHT22;64574;48.506;-2.750;2023-12-20T13:26:23;10.20;82.40
75621;DHT22;64574;48.506;-2.750;2023-12-20T13:28:48;10.20;83.50
75621;DHT22;64574;48.506;-2.750;2023-12-20T13:31:14;10.20;83.30
75621;DHT22;64574;48.506;-2.750;2023-12-20T13:33:39;10.20;83.50
75621;DHT22;64574;48.506;-2.750;2023-12-20T13:36:05;10.20;83.30
75621;DHT22;64574;48.506;-2.750;2023-12-20T13:38:31;10.20;83.00
75621;DHT22;64574;48.506;-2.750;2023-12-20T13:40:57;10.20;83.00
75621;DHT22;64574;48.506;-2.750;2023-12-20T13:43:24;10.20;82.60
75621;DHT22;64574;48.506;-2.750;2023-12-20T13:45:50;10.30;82.80
75621;DHT22;64574;48.506;-2.750;2023-12-20T13:48:15;10.30;82.60
75621;DHT22;64574;48.506;-2.750;2023-12-20T13:50:41;10.30;82.30
75621;DHT22;64574;48.506;-2.750;2023-12-20T13:53:07;10.40;82.00
75621;DHT22;64574;48.506;-2.750;2023-12-20T13:55:32;10.40;81.50
75621;DHT22;64574;48.506;-2.750;2023-12-20T13:57:58;10.40;81.60
75621;DHT22;64574;48.506;-2.750;2023-12-20T14:00:23;10.40;81.90
75621;DHT22;64574;48.506;-2.750;2023-12-20T14:02:49;10.30;82.60
75621;DHT22;64574;48.506;-2.750;2023-12-20T14:05:15;10.30;83.90
75621;DHT22;64574;48.506;-2.750;2023-12-20T14:07:45;10.50;84.10
75621;DHT22;64574;48.506;-2.750;2023-12-20T14:10:11;10.60;84.00
75621;DHT22;64574;48.506;-2.750;2023-12-20T14:12:38;10.60;83.40
75621;DHT22;64574;48.506;-2.750;2023-12-20T14:15:04;10.60;82.90
75621;DHT22;64574;48.506;-2.750;2023-12-20T14:17:34;10.70;82.50
75621;DHT22;64574;48.506;-2.750;2023-12-20T14:20:00;10.60;81.70
75621;DHT22;64574;48.506;-2.750;2023-12-20T14:22:26;10.60;82.10
75621;DHT22;64574;48.506;-2.750;2023-12-20T14:24:51;10.50;82.70
75621;DHT22;64574;48.506;-2.750;2023-12-20T14:27:17;10.50;83.70
75621;DHT22;64574;48.506;-2.750;2023-12-20T14:29:45;10.50;84.70
75621;DHT22;64574;48.506;-2.750;2023-12-20T14:32:11;10.40;85.70
75621;DHT22;64574;48.506;-2.750;2023-12-20T14:34:39;10.30;86.50
75621;DHT22;64574;48.506;-2.750;2023-12-20T14:37:05;10.30;86.90
75621;DHT22;64574;48.506;-2.750;2023-12-20T14:39:31;10.30;86.60
75621;DHT22;64574;48.506;-2.750;2023-12-20T14:41:56;10.20;86.80
75621;DHT22;64574;48.506;-2.750;2023-12-20T14:44:22;10.20;86.00
75621;DHT22;64574;48.506;-2.750;2023-12-20T14:46:47;10.20;85.90
75621;DHT22;64574;48.506;-2.750;2023-12-20T14:49:13;10.20;85.90
75621;DHT22;64574;48.506;-2.750;2023-12-20T14:51:39;10.20;85.90
75621;DHT22;64574;48.506;-2.750;2023-12-20T14:54:05;10.20;86.00
75621;DHT22;64574;48.506;-2.750;2023-12-20T14:56:35;10.30;86.00
75621;DHT22;64574;48.506;-2.750;2023-12-20T14:59:01;10.30;86.10
75621;DHT22;64574;48.506;-2.750;2023-12-20T15:01:26;10.20;86.20
75621;DHT22;64574;48.506;-2.750;2023-12-20T15:03:52;10.30;86.30
75621;DHT22;64574;48.506;-2.750;2023-12-20T15:06:18;10.20;85.70
75621;DHT22;64574;48.506;-2.750;2023-12-20T15:08:45;10.30;85.40
75621;DHT22;64574;48.506;-2.750;2023-12-20T15:11:11;10.30;85.20
75621;DHT22;64574;48.506;-2.750;2023-12-20T15:13:37;10.20;85.00
75621;DHT22;64574;48.506;-2.750;2023-12-20T15:16:03;10.20;84.80
75621;DHT22;64574;48.506;-2.750;2023-12-20T15:18:30;10.20;84.70
75621;DHT22;64574;48.506;-2.750;2023-12-20T15:20:57;10.20;84.60
75621;DHT22;64574;48.506;-2.750;2023-12-20T15:23:23;10.20;84.80
75621;DHT22;64574;48.506;-2.750;2023-12-20T15:25:51;10.20;85.00